sensor_id;sensor_type;location;lat;lon;timestamp;pressure;altitude;pressure_sealevel;temperature;humidity
36192;BME280;22233;42.708;23.360;2024-01-11T00:02:16;96351.50;;;-2.13;59.80
36192;BME280;22233;42.708;23.360;2024-01-11T00:04:43;96357.66;;;-2.13;60.70
36192;BME280;22233;42.708;23.360;2024-01-11T00:07:09;96356.91;;;-1.82;59.98
36192;BME280;22233;42.708;23.360;2024-01-11T00:09:38;96352.44;;;-1.81;59.74
36192;BME280;22233;42.708;23.360;2024-01-11T00:12:03;96345.59;;;-1.70;59.04
36192;BME280;22233;42.708;23.360;2024-01-11T00:14:28;96349.03;;;-1.56;59.57
36192;BME280;22233;42.708;23.360;2024-01-11T00:16:54;96347.34;;;-1.51;59.45
36192;BME280;22233;42.708;23.360;2024-01-11T00:19:19;96338.38;;;-1.63;59.67
36192;BME280;22233;42.708;23.360;2024-01-11T00:21:44;96343.03;;;-1.52;58.90
36192;BME280;22233;42.708;23.360;2024-01-11T00:24:10;96343.03;;;-1.52;59.27
36192;BME280;22233;42.708;23.360;2024-01-11T00:26:35;96344.91;;;-1.52;59.36
36192;BME280;22233;42.708;23.360;2024-01-11T00:29:01;96338.31;;;-1.50;58.77
36192;BME280;22233;42.708;23.360;2024-01-11T00:31:27;96339.13;;;-1.49;59.08
36192;BME280;22233;42.708;23.360;2024-01-11T00:33:52;96337.31;;;-1.49;58.39
36192;BME280;22233;42.708;23.360;2024-01-11T00:36:18;96338.38;;;-1.56;59.32
36192;BME280;22233;42.708;23.360;2024-01-11T00:38:45;96333.69;;;-1.68;58.35
36192;BME280;22233;42.708;23.360;2024-01-11T00:41:10;96339.28;;;-1.76;59.29
36192;BME280;22233;42.708;23.360;2024-01-11T00:43:35;96332.69;;;-1.67;58.16
36192;BME280;22233;42.708;23.360;2024-01-11T00:46:00;96331.78;;;-1.92;59.09
36192;BME280;22233;42.708;23.360;2024-01-11T00:48:25;96335.44;;;-1.93;59.16
36192;BME280;22233;42.708;23.360;2024-01-11T00:50:51;96331.50;;;-1.77;58.43
36192;BME280;22233;42.708;23.360;2024-01-11T00:53:16;96335.56;;;-1.68;58.77
36192;BME280;22233;42.708;23.360;2024-01-11T00:55:42;96322.16;;;-1.55;58.11
36192;BME280;22233;42.708;23.360;2024-01-11T00:58:07;96313.69;;;-1.77;58.98
36192;BME280;22233;42.708;23.360;2024-01-11T01:00:32;96322.38;;;-1.56;58.53
36192;BME280;22233;42.708;23.360;2024-01-11T01:02:58;96320.81;;;-1.71;58.89
36192;BME280;22233;42.708;23.360;2024-01-11T01:05:23;96314.63;;;-2.10;59.24
36192;BME280;22233;42.708;23.360;2024-01-11T01:07:48;96316.88;;;-2.07;58.70
36192;BME280;22233;42.708;23.360;2024-01-11T01:10:14;96318.56;;;-2.26;58.59
36192;BME280;22233;42.708;23.360;2024-01-11T01:12:39;96318.13;;;-2.09;58.52
36192;BME280;22233;42.708;23.360;2024-01-11T01:15:04;96313.28;;;-2.32;59.42
36192;BME280;22233;42.708;23.360;2024-01-11T01:17:30;96314.50;;;-2.28;59.12
36192;BME280;22233;42.708;23.360;2024-01-11T01:19:55;96326.84;;;-2.47;59.50
36192;BME280;22233;42.708;23.360;2024-01-11T01:22:20;96315.97;;;-2.46;59.43
36192;BME280;22233;42.708;23.360;2024-01-11T01:24:45;96324.78;;;-2.52;59.75
36192;BME280;22233;42.708;23.360;2024-01-11T01:27:10;96313.38;;;-2.79;60.52
36192;BME280;22233;42.708;23.360;2024-01-11T01:29:36;96306.59;;;-2.55;59.81
36192;BME280;22233;42.708;23.360;2024-01-11T01:32:01;96313.50;;;-2.41;59.61
36192;BME280;22233;42.708;23.360;2024-01-11T01:34:26;96314.53;;;-2.48;60.02
36192;BME280;22233;42.708;23.360;2024-01-11T01:36:51;96308.22;;;-2.47;59.83
36192;BME280;22233;42.708;23.360;2024-01-11T01:39:17;96307.44;;;-2.94;60.67
36192;BME280;22233;42.708;23.360;2024-01-11T01:41:42;96303.16;;;-3.29;62.28
36192;BME280;22233;42.708;23.360;2024-01-11T01:44:07;96302.75;;;-3.39;62.09
36192;BME280;22233;42.708;23.360;2024-01-11T01:46:32;96291.91;;;-3.31;61.47
36192;BME280;22233;42.708;23.360;2024-01-11T01:48:59;96287.22;;;-3.02;60.97
36192;BME280;22233;42.708;23.360;2024-01-11T01:51:25;96288.44;;;-2.85;60.53
36192;BME280;22233;42.708;23.360;2024-01-11T01:53:52;96297.63;;;-2.87;61.20
36192;BME280;22233;42.708;23.360;2024-01-11T01:56:18;96287.19;;;-2.82;60.15
36192;BME280;22233;42.708;23.360;2024-01-11T01:58:44;96284.53;;;-2.89;60.49
36192;BME280;22233;42.708;23.360;2024-01-11T02:01:09;96279.84;;;-3.07;60.68
36192;BME280;22233;42.708;23.360;2024-01-11T02:03:35;96278.63;;;-2.91;60.48
36192;BME280;22233;42.708;23.360;2024-01-11T02:06:00;96268.19;;;-2.92;60.57
36192;BME280;22233;42.708;23.360;2024-01-11T02:08:26;96272.28;;;-2.83;60.79
36192;BME280;22233;42.708;23.360;2024-01-11T02:10:52;96270.44;;;-2.96;61.22
36192;BME280;22233;42.708;23.360;2024-01-11T02:13:17;96268.75;;;-2.70;60.77
36192;BME280;22233;42.708;23.360;2024-01-11T02:15:44;96274.06;;;-2.70;60.39
36192;BME280;22233;42.708;23.360;2024-01-11T02:18:10;96267.34;;;-2.79;60.50
36192;BME280;22233;42.708;23.360;2024-01-11T02:20:35;96263.44;;;-2.70;60.59
36192;BME280;22233;42.708;23.360;2024-01-11T02:23:01;96263.06;;;-2.81;60.14
36192;BME280;22233;42.708;23.360;2024-01-11T02:25:28;96268.75;;;-2.70;60.48
36192;BME280;22233;42.708;23.360;2024-01-11T02:27:53;96257.97;;;-2.89;60.34
36192;BME280;22233;42.708;23.360;2024-01-11T02:30:19;96262.69;;;-3.11;60.95
36192;BME280;22233;42.708;23.360;2024-01-11T02:32:44;96258.81;;;-3.55;62.35
36192;BME280;22233;42.708;23.360;2024-01-11T02:35:12;96267.59;;;-3.68;62.15
36192;BME280;22233;42.708;23.360;2024-01-11T02:37:37;96266.75;;;-3.68;62.11
36192;BME280;22233;42.708;23.360;2024-01-11T02:40:04;96266.13;;;-3.70;62.14
36192;BME280;22233;42.708;23.360;2024-01-11T02:42:29;96268.16;;;-3.72;62.18
36192;BME280;22233;42.708;23.360;2024-01-11T02:44:54;96259.00;;;-3.70;62.18
36192;BME280;22233;42.708;23.360;2024-01-11T02:47:20;96255.69;;;-3.78;62.78
36192;BME280;22233;42.708;23.360;2024-01-11T02:49:45;96253.63;;;-3.96;63.16
36192;BME280;22233;42.708;23.360;2024-01-11T02:52:10;96247.34;;;-3.82;62.82
36192;BME280;22233;42.708;23.360;2024-01-11T02:54:35;96253.47;;;-3.48;62.90
36192;BME280;22233;42.708;23.360;2024-01-11T02:57:00;96247.16;;;-3.61;63.03
36192;BME280;22233;42.708;23.360;2024-01-11T02:59:26;96245.34;;;-3.60;63.17
36192;BME280;22233;42.708;23.360;2024-01-11T03:01:51;96254.28;;;-3.81;63.06
36192;BME280;22233;42.708;23.360;2024-01-11T03:04:16;96250.22;;;-3.64;62.44
36192;BME280;22233;42.708;23.360;2024-01-11T03:06:42;96243.84;;;-3.89;63.38
36192;BME280;22233;42.708;23.360;2024-01-11T03:09:07;96248.53;;;-3.91;63.29
36192;BME280;22233;42.708;23.360;2024-01-11T03:11:32;96246.31;;;-3.74;63.61
36192;BME280;22233;42.708;23.360;2024-01-11T03:13:57;96246.94;;;-3.66;63.57
36192;BME280;22233;42.708;23.360;2024-01-11T03:16:23;96244.69;;;-3.42;63.06
36192;BME280;22233;42.708;23.360;2024-01-11T03:18:48;96238.16;;;-3.46;63.11
36192;BME280;22233;42.708;23.360;2024-01-11T03:21:13;96248.34;;;-3.90;63.35
36192;BME280;22233;42.708;23.360;2024-01-11T03:23:38;96243.47;;;-3.86;63.30
36192;BME280;22233;42.708;23.360;2024-01-11T03:26:04;96251.03;;;-3.70;63.30
36192;BME280;22233;42.708;23.360;2024-01-11T03:28:29;96244.59;;;-4.22;64.62
36192;BME280;22233;42.708;23.360;2024-01-11T03:30:54;96248.00;;;-4.35;65.25
36192;BME280;22233;42.708;23.360;2024-01-11T03:33:19;96247.75;;;-4.47;65.18
36192;BME280;22233;42.708;23.360;2024-01-11T03:35:45;96244.25;;;-4.54;65.81
36192;BME280;22233;42.708;23.360;2024-01-11T03:38:10;96232.91;;;-4.34;65.56
36192;BME280;22233;42.708;23.360;2024-01-11T03:40:35;96233.56;;;-4.19;65.83
36192;BME280;22233;42.708;23.360;2024-01-11T03:43:00;96233.13;;;-4.29;65.60
36192;BME280;22233;42.708;23.360;2024-01-11T03:45:26;96234.19;;;-4.72;67.47
36192;BME280;22233;42.708;23.360;2024-01-11T03:47:51;96239.16;;;-4.49;66.64
36192;BME280;22233;42.708;23.360;2024-01-11T03:50:16;96234.66;;;-4.55;66.55
36192;BME280;22233;42.708;23.360;2024-01-11T03:52:42;96231.91;;;-4.27;65.76
36192;BME280;22233;42.708;23.360;2024-01-11T03:55:07;96224.13;;;-4.42;66.44
36192;BME280;22233;42.708;23.360;2024-01-11T03:57:32;96229.91;;;-4.11;65.38
36192;BME280;22233;42.708;23.360;2024-01-11T03:59:57;96225.88;;;-3.87;64.84
36192;BME280;22233;42.708;23.360;2024-01-11T04:02:24;96223.25;;;-3.74;64.18
36192;BME280;22233;42.708;23.360;2024-01-11T04:04:49;96219.38;;;-3.51;63.94
36192;BME280;22233;42.708;23.360;2024-01-11T04:07:14;96222.25;;;-3.59;63.29
36192;BME280;22233;42.708;23.360;2024-01-11T04:09:39;96219.16;;;-3.90;64.45
36192;BME280;22233;42.708;23.360;2024-01-11T04:12:05;96220.56;;;-3.81;63.99
36192;BME280;22233;42.708;23.360;2024-01-11T04:14:31;96223.25;;;-3.54;63.67
36192;BME280;22233;42.708;23.360;2024-01-11T04:16:56;96220.81;;;-3.55;63.33
36192;BME280;22233;42.708;23.360;2024-01-11T04:19:21;96221.22;;;-3.32;62.70
36192;BME280;22233;42.708;23.360;2024-01-11T04:21:46;96211.19;;;-3.30;63.37
36192;BME280;22233;42.708;23.360;2024-01-11T04:24:11;96212.63;;;-3.27;62.45
36192;BME280;22233;42.708;23.360;2024-01-11T04:26:37;96206.50;;;-3.48;62.65
36192;BME280;22233;42.708;23.360;2024-01-11T04:29:02;96208.13;;;-3.53;62.86
36192;BME280;22233;42.708;23.360;2024-01-11T04:31:28;96216.66;;;-4.05;64.67
36192;BME280;22233;42.708;23.360;2024-01-11T04:33:53;96214.25;;;-3.79;63.13
36192;BME280;22233;42.708;23.360;2024-01-11T04:36:18;96211.63;;;-3.59;61.99
36192;BME280;22233;42.708;23.360;2024-01-11T04:38:43;96212.03;;;-3.49;62.05
36192;BME280;22233;42.708;23.360;2024-01-11T04:41:12;96218.09;;;-3.89;62.62
36192;BME280;22233;42.708;23.360;2024-01-11T04:43:41;96216.88;;;-3.99;63.36
36192;BME280;22233;42.708;23.360;2024-01-11T04:46:13;96221.78;;;-3.96;63.89
36192;BME280;22233;42.708;23.360;2024-01-11T04:48:38;96221.00;;;-3.77;62.91
36192;BME280;22233;42.708;23.360;2024-01-11T04:51:03;96227.09;;;-3.76;62.75
36192;BME280;22233;42.708;23.360;2024-01-11T04:53:29;96226.72;;;-3.73;62.27
36192;BME280;22233;42.708;23.360;2024-01-11T04:55:54;96221.59;;;-3.75;62.50
36192;BME280;22233;42.708;23.360;2024-01-11T04:58:19;96224.41;;;-4.16;63.65
36192;BME280;22233;42.708;23.360;2024-01-11T05:00:44;96219.69;;;-4.21;63.83
36192;BME280;22233;42.708;23.360;2024-01-11T05:03:09;96226.03;;;-4.09;63.38
36192;BME280;22233;42.708;23.360;2024-01-11T05:05:35;96225.03;;;-4.08;63.14
36192;BME280;22233;42.708;23.360;2024-01-11T05:08:00;96225.03;;;-4.08;63.74
36192;BME280;22233;42.708;23.360;2024-01-11T05:10:25;96218.63;;;-4.27;64.14
36192;BME280;22233;42.708;23.360;2024-01-11T05:12:50;96221.09;;;-4.25;64.04
36192;BME280;22233;42.708;23.360;2024-01-11T05:15:16;96216.78;;;-4.33;64.98
36192;BME280;22233;42.708;23.360;2024-01-11T05:17:41;96213.56;;;-4.22;65.04
36192;BME280;22233;42.708;23.360;2024-01-11T05:20:07;96210.84;;;-4.35;64.85
36192;BME280;22233;42.708;23.360;2024-01-11T05:22:33;96207.81;;;-4.38;65.10
36192;BME280;22233;42.708;23.360;2024-01-11T05:24:58;96214.03;;;-4.59;66.35
36192;BME280;22233;42.708;23.360;2024-01-11T05:27:23;96207.16;;;-4.47;65.79
36192;BME280;22233;42.708;23.360;2024-01-11T05:29:48;96204.84;;;-4.70;66.23
36192;BME280;22233;42.708;23.360;2024-01-11T05:32:14;96200.16;;;-5.03;67.21
36192;BME280;22233;42.708;23.360;2024-01-11T05:34:39;96196.16;;;-4.92;66.99
36192;BME280;22233;42.708;23.360;2024-01-11T05:37:04;96198.28;;;-4.74;66.80
36192;BME280;22233;42.708;23.360;2024-01-11T05:39:30;96195.22;;;-4.78;66.88
36192;BME280;22233;42.708;23.360;2024-01-11T05:41:55;96192.00;;;-5.08;67.25
36192;BME280;22233;42.708;23.360;2024-01-11T05:44:20;96191.06;;;-4.87;66.91
36192;BME280;22233;42.708;23.360;2024-01-11T05:46:45;96188.13;;;-4.64;66.35
36192;BME280;22233;42.708;23.360;2024-01-11T05:49:11;96187.16;;;-4.56;65.86
36192;BME280;22233;42.708;23.360;2024-01-11T05:51:36;96186.75;;;-4.47;65.50
36192;BME280;22233;42.708;23.360;2024-01-11T05:54:01;96182.53;;;-4.21;64.94
36192;BME280;22233;42.708;23.360;2024-01-11T05:56:27;96182.25;;;-4.53;64.61
36192;BME280;22233;42.708;23.360;2024-01-11T05:58:52;96176.75;;;-4.51;64.94
36192;BME280;22233;42.708;23.360;2024-01-11T06:01:17;96182.72;;;-4.43;64.59
36192;BME280;22233;42.708;23.360;2024-01-11T06:03:42;96178.59;;;-4.52;65.23
36192;BME280;22233;42.708;23.360;2024-01-11T06:06:08;96175.94;;;-4.52;64.74
36192;BME280;22233;42.708;23.360;2024-01-11T06:08:33;96177.09;;;-4.68;65.04
36192;BME280;22233;42.708;23.360;2024-01-11T06:10:58;96174.31;;;-4.46;64.80
36192;BME280;22233;42.708;23.360;2024-01-11T06:13:23;96171.84;;;-4.54;64.81
36192;BME280;22233;42.708;23.360;2024-01-11T06:15:49;96175.50;;;-4.62;64.88
36192;BME280;22233;42.708;23.360;2024-01-11T06:18:15;96167.72;;;-4.64;64.49
36192;BME280;22233;42.708;23.360;2024-01-11T06:20:40;96177.78;;;-4.52;64.45
36192;BME280;22233;42.708;23.360;2024-01-11T06:23:05;96170.44;;;-4.44;63.76
36192;BME280;22233;42.708;23.360;2024-01-11T06:25:31;96172.31;;;-4.31;71.12
36192;BME280;22233;42.708;23.360;2024-01-11T06:27:56;96175.38;;;1.43;99.19
36192;BME280;22233;42.708;23.360;2024-01-11T06:30:22;96173.41;;;-0.10;100.00
36192;BME280;22233;42.708;23.360;2024-01-11T06:32:47;96164.56;;;-1.58;89.44
36192;BME280;22233;42.708;23.360;2024-01-11T06:35:12;96160.16;;;-1.71;79.47
36192;BME280;22233;42.708;23.360;2024-01-11T06:37:38;96165.63;;;-2.23;71.28
36192;BME280;22233;42.708;23.360;2024-01-11T06:40:03;96163.66;;;-2.86;65.71
36192;BME280;22233;42.708;23.360;2024-01-11T06:42:29;96152.53;;;-3.35;64.34
36192;BME280;22233;42.708;23.360;2024-01-11T06:44:54;96156.25;;;-3.49;65.50
36192;BME280;22233;42.708;23.360;2024-01-11T06:47:20;96154.00;;;-3.72;64.43
36192;BME280;22233;42.708;23.360;2024-01-11T06:49:45;96159.53;;;-3.54;64.33
36192;BME280;22233;42.708;23.360;2024-01-11T06:52:10;96156.44;;;-3.71;63.59
36192;BME280;22233;42.708;23.360;2024-01-11T06:54:35;96165.22;;;-3.70;63.93
36192;BME280;22233;42.708;23.360;2024-01-11T06:57:01;96162.16;;;-3.61;64.13
36192;BME280;22233;42.708;23.360;2024-01-11T06:59:26;96163.81;;;-3.73;64.31
36192;BME280;22233;42.708;23.360;2024-01-11T07:01:51;96160.72;;;-3.43;63.73
36192;BME280;22233;42.708;23.360;2024-01-11T07:04:17;96158.47;;;-3.46;62.98
36192;BME280;22233;42.708;23.360;2024-01-11T07:06:42;96148.91;;;-3.87;64.72
36192;BME280;22233;42.708;23.360;2024-01-11T07:09:07;96153.59;;;-3.69;64.00
36192;BME280;22233;42.708;23.360;2024-01-11T07:11:32;96156.41;;;-4.17;65.85
36192;BME280;22233;42.708;23.360;2024-01-11T07:13:58;96155.66;;;-3.78;64.89
36192;BME280;22233;42.708;23.360;2024-01-11T07:16:23;96157.88;;;-3.68;64.09
36192;BME280;22233;42.708;23.360;2024-01-11T07:18:49;96159.09;;;-3.57;63.68
36192;BME280;22233;42.708;23.360;2024-01-11T07:21:23;96152.34;;;-3.53;nan
36192;BME280;22233;42.708;23.360;2024-01-11T07:23:56;96151.94;;;-3.50;64.29
36192;BME280;22233;42.708;23.360;2024-01-11T07:26:24;96141.31;;;-3.50;64.30
36192;BME280;22233;42.708;23.360;2024-01-11T07:28:49;96145.63;;;-3.56;63.94
36192;BME280;22233;42.708;23.360;2024-01-11T07:31:15;96140.94;;;-3.67;64.42
36192;BME280;22233;42.708;23.360;2024-01-11T07:33:41;96142.13;;;-3.56;65.25
36192;BME280;22233;42.708;23.360;2024-01-11T07:36:06;96147.69;;;-3.78;65.71
36192;BME280;22233;42.708;23.360;2024-01-11T07:38:31;96154.41;;;-3.55;65.59
36192;BME280;22233;42.708;23.360;2024-01-11T07:40:56;96153.00;;;-3.58;65.70
36192;BME280;22233;42.708;23.360;2024-01-11T07:43:22;96146.66;;;-3.84;66.13
36192;BME280;22233;42.708;23.360;2024-01-11T07:45:47;96157.25;;;-3.97;67.93
36192;BME280;22233;42.708;23.360;2024-01-11T07:48:12;96151.16;;;-4.79;69.92
36192;BME280;22233;42.708;23.360;2024-01-11T07:50:38;96146.53;;;-4.64;70.56
36192;BME280;22233;42.708;23.360;2024-01-11T07:53:03;96140.63;;;-4.59;69.57
36192;BME280;22233;42.708;23.360;2024-01-11T07:55:28;96142.97;;;-4.91;71.84
36192;BME280;22233;42.708;23.360;2024-01-11T07:57:53;96140.41;;;-4.64;71.09
36192;BME280;22233;42.708;23.360;2024-01-11T08:00:19;96140.13;;;-4.08;68.90
36192;BME280;22233;42.708;23.360;2024-01-11T08:02:44;96143.72;;;-4.42;69.79
36192;BME280;22233;42.708;23.360;2024-01-11T08:05:10;96131.94;;;-4.13;69.51
36192;BME280;22233;42.708;23.360;2024-01-11T08:07:35;96133.97;;;-4.22;70.08
36192;BME280;22233;42.708;23.360;2024-01-11T08:10:00;96131.94;;;-3.93;69.95
36192;BME280;22233;42.708;23.360;2024-01-11T08:12:25;96129.47;;;-3.54;68.38
36192;BME280;22233;42.708;23.360;2024-01-11T08:14:51;96130.25;;;-3.27;67.25
36192;BME280;22233;42.708;23.360;2024-01-11T08:17:16;96131.47;;;-3.23;67.25
36192;BME280;22233;42.708;23.360;2024-01-11T08:19:41;96130.22;;;-3.21;67.24
36192;BME280;22233;42.708;23.360;2024-01-11T08:22:10;96122.13;;;-2.81;66.54
36192;BME280;22233;42.708;23.360;2024-01-11T08:24:35;96125.16;;;-3.49;68.12
36192;BME280;22233;42.708;23.360;2024-01-11T08:27:01;96117.41;;;-3.57;68.31
36192;BME280;22233;42.708;23.360;2024-01-11T08:29:26;96122.47;;;-3.29;67.17
36192;BME280;22233;42.708;23.360;2024-01-11T08:31:51;96123.56;;;-2.85;66.07
36192;BME280;22233;42.708;23.360;2024-01-11T08:34:16;96116.06;;;-2.56;64.69
36192;BME280;22233;42.708;23.360;2024-01-11T08:36:42;96119.72;;;-3.02;65.27
36192;BME280;22233;42.708;23.360;2024-01-11T08:39:07;96129.50;;;-2.44;64.69
36192;BME280;22233;42.708;23.360;2024-01-11T08:41:35;96116.09;;;-2.24;64.14
36192;BME280;22233;42.708;23.360;2024-01-11T08:44:02;96121.53;;;-1.87;63.43
36192;BME280;22233;42.708;23.360;2024-01-11T08:46:27;96123.72;;;-1.77;62.60
36192;BME280;22233;42.708;23.360;2024-01-11T08:48:53;96120.19;;;-1.96;64.09
36192;BME280;22233;42.708;23.360;2024-01-11T08:51:19;96115.25;;;-1.68;62.96
36192;BME280;22233;42.708;23.360;2024-01-11T08:53:44;96102.25;;;-1.57;62.17
36192;BME280;22233;42.708;23.360;2024-01-11T08:56:09;96108.47;;;-1.45;61.45
36192;BME280;22233;42.708;23.360;2024-01-11T08:58:35;96101.25;;;-1.38;60.77
36192;BME280;22233;42.708;23.360;2024-01-11T09:01:01;96096.19;;;-0.91;60.17
36192;BME280;22233;42.708;23.360;2024-01-11T09:03:26;96101.34;;;-1.08;59.43
36192;BME280;22233;42.708;23.360;2024-01-11T09:05:51;96096.09;;;-1.58;60.35
36192;BME280;22233;42.708;23.360;2024-01-11T09:08:17;96092.25;;;-1.87;62.83
36192;BME280;22233;42.708;23.360;2024-01-11T09:10:42;96081.22;;;-1.66;62.95
36192;BME280;22233;42.708;23.360;2024-01-11T09:13:07;96077.94;;;-1.43;61.90
36192;BME280;22233;42.708;23.360;2024-01-11T09:15:33;96077.47;;;-1.39;62.09
36192;BME280;22233;42.708;23.360;2024-01-11T09:17:58;96064.88;;;-0.95;60.82
36192;BME280;22233;42.708;23.360;2024-01-11T09:20:25;96070.22;;;-1.14;61.46
36192;BME280;22233;42.708;23.360;2024-01-11T09:22:50;96062.53;;;-0.73;61.47
36192;BME280;22233;42.708;23.360;2024-01-11T09:25:15;96058.56;;;-0.83;61.14
36192;BME280;22233;42.708;23.360;2024-01-11T09:27:41;96065.63;;;-1.07;61.23
36192;BME280;22233;42.708;23.360;2024-01-11T09:30:06;96051.06;;;-1.23;61.48
36192;BME280;22233;42.708;23.360;2024-01-11T09:32:31;96054.44;;;-1.15;62.93
36192;BME280;22233;42.708;23.360;2024-01-11T09:34:57;96048.97;;;-1.21;62.83
36192;BME280;22233;42.708;23.360;2024-01-11T09:37:22;96043.19;;;-0.69;60.50
36192;BME280;22233;42.708;23.360;2024-01-11T09:39:47;96038.53;;;-0.43;60.51
36192;BME280;22233;42.708;23.360;2024-01-11T09:42:12;96040.34;;;-0.13;59.52
36192;BME280;22233;42.708;23.360;2024-01-11T09:44:38;96032.94;;;0.12;58.08
36192;BME280;22233;42.708;23.360;2024-01-11T09:47:05;96018.66;;;0.07;58.33
36192;BME280;22233;42.708;23.360;2024-01-11T09:49:31;96019.69;;;0.29;57.39
36192;BME280;22233;42.708;23.360;2024-01-11T09:51:58;96011.66;;;0.41;57.55
36192;BME280;22233;42.708;23.360;2024-01-11T09:54:26;96005.97;;;0.26;58.34
36192;BME280;22233;42.708;23.360;2024-01-11T09:56:51;96001.56;;;0.43;56.92
36192;BME280;22233;42.708;23.360;2024-01-11T09:59:18;96001.63;;;0.60;57.54
36192;BME280;22233;42.708;23.360;2024-01-11T10:01:45;95995.91;;;0.68;58.14
36192;BME280;22233;42.708;23.360;2024-01-11T10:04:11;95998.31;;;0.17;58.90
36192;BME280;22233;42.708;23.360;2024-01-11T10:06:38;95994.56;;;0.42;59.39
36192;BME280;22233;42.708;23.360;2024-01-11T10:09:03;95989.94;;;0.26;60.08
36192;BME280;22233;42.708;23.360;2024-01-11T10:11:28;95982.91;;;0.60;59.02
36192;BME280;22233;42.708;23.360;2024-01-11T10:13:57;95986.59;;;0.83;58.33
36192;BME280;22233;42.708;23.360;2024-01-11T10:16:23;95971.59;;;1.10;57.31
36192;BME280;22233;42.708;23.360;2024-01-11T10:18:49;95962.44;;;1.06;56.91
36192;BME280;22233;42.708;23.360;2024-01-11T10:21:14;95960.13;;;1.27;57.10
36192;BME280;22233;42.708;23.360;2024-01-11T10:23:40;95956.84;;;0.27;59.04
36192;BME280;22233;42.708;23.360;2024-01-11T10:26:05;95956.63;;;0.81;58.04
36192;BME280;22233;42.708;23.360;2024-01-11T10:28:32;95962.16;;;0.91;58.22
36192;BME280;22233;42.708;23.360;2024-01-11T10:31:01;95954.41;;;1.06;56.95
36192;BME280;22233;42.708;23.360;2024-01-11T10:33:26;95945.56;;;1.06;55.96
36192;BME280;22233;42.708;23.360;2024-01-11T10:35:52;95937.63;;;1.56;55.63
36192;BME280;22233;42.708;23.360;2024-01-11T10:38:17;95926.59;;;1.07;56.64
36192;BME280;22233;42.708;23.360;2024-01-11T10:40:43;95933.09;;;1.74;55.51
36192;BME280;22233;42.708;23.360;2024-01-11T10:43:11;95924.31;;;1.95;55.30
36192;BME280;22233;42.708;23.360;2024-01-11T10:45:37;95918.59;;;2.09;55.38
36192;BME280;22233;42.708;23.360;2024-01-11T10:48:07;95919.16;;;2.11;53.16
36192;BME280;22233;42.708;23.360;2024-01-11T10:50:36;95911.09;;;2.11;54.09
36192;BME280;22233;42.708;23.360;2024-01-11T10:53:17;95910.47;;;2.43;53.15
36192;BME280;22233;42.708;23.360;2024-01-11T10:55:47;95905.34;;;2.41;52.87
36192;BME280;22233;42.708;23.360;2024-01-11T10:58:12;95894.06;;;2.61;52.03
36192;BME280;22233;42.708;23.360;2024-01-11T11:00:38;95896.00;;;2.44;53.00
36192;BME280;22233;42.708;23.360;2024-01-11T11:03:04;95887.19;;;2.70;52.22
36192;BME280;22233;42.708;23.360;2024-01-11T11:05:31;95878.03;;;2.66;52.65
36192;BME280;22233;42.708;23.360;2024-01-11T11:07:57;95871.91;;;2.71;53.00
36192;BME280;22233;42.708;23.360;2024-01-11T11:10:23;95869.31;;;2.81;52.50
36192;BME280;22233;42.708;23.360;2024-01-11T11:12:49;95860.84;;;3.22;52.15
36192;BME280;22233;42.708;23.360;2024-01-11T11:15:14;95858.63;;;2.59;53.28
36192;BME280;22233;42.708;23.360;2024-01-11T11:17:40;95849.44;;;2.77;52.01
36192;BME280;22233;42.708;23.360;2024-01-11T11:20:08;95847.16;;;3.18;52.98
36192;BME280;22233;42.708;23.360;2024-01-11T11:22:36;95832.03;;;3.12;52.07
36192;BME280;22233;42.708;23.360;2024-01-11T11:25:11;95835.56;;;3.50;52.22
36192;BME280;22233;42.708;23.360;2024-01-11T11:27:37;95823.59;;;3.68;51.05
36192;BME280;22233;42.708;23.360;2024-01-11T11:30:03;95817.75;;;3.76;50.89
36192;BME280;22233;42.708;23.360;2024-01-11T11:32:38;95817.13;;;3.64;50.54
36192;BME280;22233;42.708;23.360;2024-01-11T11:35:54;95807.59;;;3.83;50.32
36192;BME280;22233;42.708;23.360;2024-01-11T11:38:21;95795.88;;;4.05;50.60
36192;BME280;22233;42.708;23.360;2024-01-11T11:40:48;95789.72;;;4.09;49.21
36192;BME280;22233;42.708;23.360;2024-01-11T11:43:17;95783.50;;;3.98;49.67
36192;BME280;22233;42.708;23.360;2024-01-11T11:45:44;95789.59;;;4.47;49.43
36192;BME280;22233;42.708;23.360;2024-01-11T11:53:46;95781.56;;;4.93;48.95
36192;BME280;22233;42.708;23.360;2024-01-11T11:56:11;95777.22;;;4.56;48.74
36192;BME280;22233;42.708;23.360;2024-01-11T11:58:46;95772.63;;;4.56;49.17
36192;BME280;22233;42.708;23.360;2024-01-11T12:01:14;95768.06;;;4.47;49.28
36192;BME280;22233;42.708;23.360;2024-01-11T12:03:41;95762.13;;;4.45;50.15
36192;BME280;22233;42.708;23.360;2024-01-11T12:06:09;95752.78;;;4.93;49.40
36192;BME280;22233;42.708;23.360;2024-01-11T12:08:41;95759.78;;;5.20;50.42
36192;BME280;22233;42.708;23.360;2024-01-11T12:11:07;95743.91;;;5.24;50.48
36192;BME280;22233;42.708;23.360;2024-01-11T12:13:33;95725.53;;;5.41;49.18
36192;BME280;22233;42.708;23.360;2024-01-11T12:15:59;95733.63;;;5.46;49.65
36192;BME280;22233;42.708;23.360;2024-01-11T12:18:24;95730.31;;;5.75;48.94
36192;BME280;22233;42.708;23.360;2024-01-11T12:20:51;95724.44;;;5.47;48.38
36192;BME280;22233;42.708;23.360;2024-01-11T12:23:18;95727.19;;;5.32;48.67
36192;BME280;22233;42.708;23.360;2024-01-11T12:25:43;95714.81;;;5.15;49.95
36192;BME280;22233;42.708;23.360;2024-01-11T12:28:09;95717.00;;;5.03;50.75
36192;BME280;22233;42.708;23.360;2024-01-11T12:30:34;95711.44;;;5.80;49.56
36192;BME280;22233;42.708;23.360;2024-01-11T12:33:00;95697.69;;;5.82;48.63
36192;BME280;22233;42.708;23.360;2024-01-11T12:35:27;95695.53;;;5.78;48.35
36192;BME280;22233;42.708;23.360;2024-01-11T12:37:59;95699.69;;;5.50;49.12
36192;BME280;22233;42.708;23.360;2024-01-11T12:40:25;95688.97;;;5.19;50.31
36192;BME280;22233;42.708;23.360;2024-01-11T12:42:52;95698.66;;;5.10;50.39
36192;BME280;22233;42.708;23.360;2024-01-11T12:45:18;95678.13;;;5.50;50.41
36192;BME280;22233;42.708;23.360;2024-01-11T12:47:43;95667.75;;;5.83;49.27
36192;BME280;22233;42.708;23.360;2024-01-11T12:50:10;95683.00;;;6.18;48.06
36192;BME280;22233;42.708;23.360;2024-01-11T12:52:37;95687.06;;;6.16;47.79